createdAt,value
2023-02-28T00:00:44.519Z,79.85
2023-02-28T00:03:38.304Z,113.33
2023-02-28T00:06:34.510Z,61.47
2023-02-28T00:09:27.232Z,124.35
2023-02-28T00:12:26.621Z,147.32
2023-02-28T00:15:17.922Z,76.17
2023-02-28T00:18:04.287Z,93.57
2023-02-28T00:21:11.463Z,74.38
2023-02-28T00:23:52.021Z,81.00
2023-02-28T00:26:34.839Z,70.15
2023-02-28T00:29:11.075Z,95.68
2023-02-28T00:32:09.712Z,58.80
2023-02-28T00:34:40.050Z,61.23
2023-02-28T00:37:11.937Z,96.53
2023-02-28T00:39:51.499Z,71.00
2023-02-28T00:42:20.373Z,143.13
2023-02-28T00:44:54.031Z,82.87
2023-02-28T00:47:26.380Z,138.33
2023-02-28T00:49:59.434Z,97.37
2023-02-28T00:52:29.195Z,66.73
2023-02-28T00:55:04.925Z,59.23
2023-02-28T00:57:49.634Z,66.30
2023-02-28T01:00:20.848Z,156.32
2023-02-28T01:02:49.806Z,65.80
2023-02-28T01:05:41.139Z,68.50
2023-02-28T01:08:13.225Z,66.57
2023-02-28T01:10:42.480Z,74.72
2023-02-28T01:13:42.948Z,55.33
2023-02-28T01:16:16.754Z,134.60
2023-02-28T01:18:47.034Z,97.95
2023-02-28T01:21:20.249Z,82.50
2023-02-28T01:23:59.334Z,71.30
2023-02-28T01:26:30.844Z,96.13
2023-02-28T01:29:03.618Z,76.90
2023-02-28T01:31:38.512Z,82.10
2023-02-28T01:38:00.997Z,95.97
2023-02-28T01:40:40.100Z,85.88
2023-02-28T01:44:04.103Z,149.43
2023-02-28T01:46:44.452Z,89.70
2023-02-28T01:53:48.540Z,78.45
2023-02-28T01:56:33.439Z,79.10
2023-02-28T02:02:45.020Z,101.97
2023-02-28T02:06:00.213Z,110.77
2023-02-28T02:12:47.547Z,105.10
2023-02-28T02:15:45.152Z,82.57
2023-02-28T02:25:51.447Z,158.63
2023-02-28T02:28:53.021Z,118.83
2023-02-28T02:31:48.734Z,110.07
2023-02-28T02:38:48.284Z,174.27
2023-02-28T02:44:51.065Z,80.37
2023-02-28T02:47:48.453Z,101.87
2023-02-28T02:56:57.817Z,99.70
2023-02-28T03:00:15.596Z,129.80
2023-02-28T03:03:22.657Z,115.73
2023-02-28T03:09:37.082Z,113.50
2023-02-28T03:12:48.798Z,111.90
2023-02-28T03:15:35.958Z,114.67
2023-02-28T03:21:43.625Z,151.17
2023-02-28T03:28:04.407Z,95.80
2023-02-28T03:31:17.427Z,161.93
2023-02-28T03:34:20.038Z,108.67
2023-02-28T03:40:24.804Z,161.63
2023-02-28T03:43:16.093Z,106.50
2023-02-28T03:46:05.129Z,95.37
2023-02-28T03:51:47.375Z,136.85
2023-02-28T03:54:33.357Z,119.77
2023-02-28T03:57:17.453Z,127.90
2023-02-28T04:03:34.376Z,164.97
2023-02-28T04:06:23.899Z,95.57
2023-02-28T04:09:07.918Z,96.03
2023-02-28T04:18:29.167Z,101.87
2023-02-28T04:21:15.028Z,105.37
2023-02-28T04:23:55.753Z,151.60
2023-02-28T04:26:50.652Z,107.47
2023-02-28T04:29:46.563Z,137.00
2023-02-28T04:33:03.102Z,108.40
2023-02-28T04:36:02.819Z,121.95
2023-02-28T04:38:31.768Z,102.33
2023-02-28T04:41:03.479Z,155.38
2023-02-28T04:44:02.429Z,195.93
2023-02-28T04:54:30.999Z,194.10
2023-02-28T04:57:01.695Z,205.25
2023-02-28T04:59:41.742Z,110.60
2023-02-28T05:02:18.529Z,113.50
2023-02-28T05:07:50.409Z,160.00
2023-02-28T05:19:19.921Z,136.80
2023-02-28T05:22:00.644Z,106.18
2023-02-28T05:24:31.003Z,189.27
2023-02-28T05:27:00.236Z,157.80
2023-02-28T05:29:32.085Z,159.82
2023-02-28T05:34:58.365Z,98.60
2023-02-28T05:37:30.453Z,173.57
2023-02-28T05:40:02.188Z,137.23
2023-02-28T05:42:33.125Z,161.43
2023-02-28T05:45:08.122Z,139.83
2023-02-28T05:47:38.776Z,110.23
2023-02-28T05:52:57.116Z,141.43
2023-02-28T07:02:51.664Z,221.13
2023-02-28T07:05:20.036Z,264.52
2023-02-28T07:07:48.700Z,173.48
2023-02-28T07:10:20.188Z,124.97
2023-02-28T07:12:48.945Z,135.50
2023-02-28T07:15:17.651Z,109.82
2023-02-28T07:17:46.324Z,124.28
2023-02-28T07:20:16.920Z,226.57
2023-02-28T07:22:45.491Z,118.25
2023-02-28T07:25:14.225Z,330.42
2023-02-28T07:27:42.947Z,176.27
2023-02-28T07:30:13.204Z,123.03
2023-02-28T07:32:44.681Z,118.50
2023-02-28T07:35:16.399Z,148.88
2023-02-28T07:37:45.117Z,133.48
2023-02-28T07:40:14.839Z,92.60
2023-02-28T07:42:44.460Z,86.25
2023-02-28T07:45:13.977Z,124.82
2023-02-28T07:47:42.652Z,178.98
2023-02-28T07:50:13.458Z,119.32
2023-02-28T07:52:43.740Z,105.68
2023-02-28T07:55:13.056Z,119.05
2023-02-28T07:57:41.842Z,238.02
2023-02-28T08:00:13.717Z,143.20
2023-02-28T08:02:42.734Z,141.55
2023-02-28T08:05:11.707Z,92.88
2023-02-28T08:07:40.256Z,366.23
2023-02-28T08:10:12.114Z,130.45
2023-02-28T08:12:40.610Z,114.80
2023-02-28T08:15:11.883Z,181.50
2023-02-28T08:17:40.683Z,75.18
2023-02-28T08:20:11.316Z,148.65
2023-02-28T08:22:39.859Z,105.60
2023-02-28T08:25:11.284Z,75.93
2023-02-28T08:27:39.981Z,94.28
2023-02-28T08:30:11.029Z,127.97
2023-02-28T08:32:39.715Z,201.05
2023-02-28T08:35:10.245Z,199.38
2023-02-28T08:37:38.914Z,201.60
2023-02-28T08:40:10.687Z,112.97
2023-02-28T08:42:39.368Z,168.73
2023-02-28T08:45:08.939Z,83.70
2023-02-28T08:47:37.561Z,83.65
2023-02-28T08:50:06.840Z,80.35
2023-02-28T08:52:35.779Z,164.98
2023-02-28T08:55:04.314Z,65.57
2023-02-28T08:57:34.305Z,117.78
2023-02-28T09:00:05.402Z,240.50
2023-02-28T09:02:34.069Z,80.05
2023-02-28T09:05:02.650Z,129.20
2023-02-28T09:07:31.367Z,248.98
2023-02-28T09:09:59.890Z,104.57
2023-02-28T09:12:29.350Z,74.97
2023-02-28T09:14:59.224Z,127.35
2023-02-28T09:17:30.801Z,243.52
2023-02-28T09:20:00.307Z,233.73
2023-02-28T09:22:28.778Z,122.57
2023-02-28T09:24:57.489Z,300.48
2023-02-28T09:27:26.097Z,291.08
2023-02-28T09:29:54.783Z,79.45
2023-02-28T09:32:24.816Z,142.23
2023-02-28T09:34:53.440Z,98.60
2023-02-28T09:37:21.983Z,100.47
2023-02-28T09:39:50.453Z,181.00
2023-02-28T09:42:24.356Z,234.30
2023-02-28T09:44:53.607Z,179.70
2023-02-28T09:47:31.630Z,267.52
2023-02-28T09:50:05.988Z,263.65
2023-02-28T09:52:36.321Z,335.85
2023-02-28T09:55:20.888Z,193.85
2023-02-28T09:57:50.394Z,199.80
2023-02-28T10:00:21.723Z,158.20
2023-02-28T10:03:21.103Z,214.23
2023-02-28T10:05:54.904Z,109.05
2023-02-28T10:08:27.925Z,261.13
2023-02-28T10:10:59.551Z,126.30
2023-02-28T10:13:37.844Z,121.32
2023-02-28T10:16:11.106Z,175.15
2023-02-28T10:18:46.047Z,439.67
2023-02-28T10:21:22.751Z,207.45
2023-02-28T10:23:51.689Z,460.85
2023-02-28T10:26:21.099Z,334.17
2023-02-28T10:28:49.569Z,255.65
2023-02-28T10:31:21.155Z,243.85
2023-02-28T10:33:51.431Z,153.50
2023-02-28T10:36:22.351Z,333.77
2023-02-28T10:38:52.436Z,489.75
2023-02-28T10:41:35.410Z,302.00
2023-02-28T10:44:17.139Z,501.55
2023-02-28T10:46:45.837Z,381.55
2023-02-28T10:49:22.290Z,410.70
2023-02-28T10:51:53.695Z,402.55
2023-02-28T10:54:24.622Z,396.98
2023-02-28T10:57:10.916Z,370.33
2023-02-28T10:59:39.339Z,315.15
2023-02-28T11:05:03.116Z,408.05
2023-02-28T11:07:41.530Z,274.23
2023-02-28T11:10:21.727Z,290.45
2023-02-28T11:12:53.435Z,235.98
2023-02-28T11:15:26.739Z,273.27
2023-02-28T11:18:00.148Z,326.00
2023-02-28T11:20:32.620Z,498.35
2023-02-28T11:23:02.541Z,363.08
2023-02-28T11:25:34.345Z,327.52
2023-02-28T11:28:07.233Z,327.92
2023-02-28T11:30:39.246Z,303.55
2023-02-28T11:33:31.420Z,297.35
2023-02-28T11:36:05.498Z,336.40
2023-02-28T11:38:37.346Z,348.88
2023-02-28T11:41:21.220Z,256.92
2023-02-28T11:44:08.025Z,306.42
2023-02-28T11:46:40.561Z,241.35
2023-02-28T11:49:22.405Z,212.15
2023-02-28T11:51:55.301Z,245.82
2023-02-28T11:54:33.626Z,306.17
2023-02-28T11:57:06.262Z,306.38
2023-02-28T11:59:49.963Z,474.27
2023-02-28T12:02:33.388Z,362.77
2023-02-28T12:05:17.726Z,340.85
2023-02-28T12:08:01.301Z,336.67
2023-02-28T12:10:32.668Z,388.02
2023-02-28T12:13:17.718Z,270.65
2023-02-28T12:19:05.172Z,288.88
2023-02-28T12:21:41.969Z,323.63
2023-02-28T12:24:29.216Z,482.35
2023-02-28T12:27:25.968Z,340.48
2023-02-28T12:30:02.257Z,248.65
2023-02-28T12:32:35.635Z,351.13
2023-02-28T12:35:08.975Z,233.10
2023-02-28T12:37:42.202Z,258.77
2023-02-28T12:40:16.078Z,338.35
2023-02-28T12:42:47.473Z,359.58
2023-02-28T12:45:24.291Z,342.25
2023-02-28T12:48:00.254Z,438.25
2023-02-28T12:50:33.664Z,198.27
2023-02-28T12:53:06.943Z,340.38
2023-02-28T12:55:49.594Z,420.65
2023-02-28T12:58:28.595Z,351.52
2023-02-28T13:01:29.144Z,367.85
2023-02-28T13:04:27.476Z,292.52
2023-02-28T13:07:12.700Z,260.95
2023-02-28T13:09:42.860Z,367.30
2023-02-28T13:12:28.502Z,445.38
2023-02-28T13:15:07.541Z,269.52
2023-02-28T13:17:36.792Z,322.85
2023-02-28T13:20:19.200Z,418.20
2023-02-28T13:22:50.889Z,327.77
2023-02-28T13:25:53.316Z,324.45
2023-02-28T13:29:08.159Z,454.95
2023-02-28T13:32:11.278Z,330.55
2023-02-28T13:34:43.711Z,223.43
2023-02-28T13:37:42.737Z,254.77
2023-02-28T13:40:41.256Z,205.30
2023-02-28T13:43:14.612Z,568.55
2023-02-28T13:46:11.410Z,267.95
2023-02-28T13:48:40.812Z,360.60
2023-02-28T13:51:46.188Z,324.45
2023-02-28T13:54:27.137Z,303.33
2023-02-28T18:24:11.617Z,298.92
2023-02-28T18:26:40.984Z,604.85
2023-02-28T18:29:10.832Z,350.40
2023-02-28T18:31:39.909Z,321.38
2023-02-28T18:34:10.251Z,279.52
2023-02-28T18:36:38.968Z,546.47
2023-02-28T18:39:08.799Z,441.50
2023-02-28T18:41:37.253Z,374.20
2023-02-28T18:44:18.975Z,362.40
2023-02-28T18:46:48.112Z,243.15
2023-02-28T18:49:16.698Z,338.95
2023-02-28T18:51:46.587Z,276.65
2023-02-28T18:54:17.372Z,310.08
2023-02-28T18:56:45.864Z,487.40
2023-02-28T18:59:14.293Z,234.30
2023-02-28T19:01:43.010Z,305.45
2023-02-28T19:04:14.533Z,550.90
2023-02-28T19:06:43.473Z,371.75
2023-02-28T19:09:12.281Z,347.23
2023-02-28T19:11:42.268Z,429.90
2023-02-28T19:14:10.712Z,361.88
2023-02-28T19:16:39.294Z,268.00
2023-02-28T19:19:08.251Z,273.33
2023-02-28T19:21:37.047Z,325.27
2023-02-28T19:24:06.322Z,294.58
2023-02-28T19:26:34.873Z,260.40
2023-02-28T19:29:06.057Z,229.20
2023-02-28T19:31:34.848Z,296.13
2023-02-28T19:34:03.913Z,235.05
2023-02-28T19:36:33.347Z,413.58
2023-02-28T19:39:01.817Z,346.08
2023-02-28T19:41:30.537Z,300.98
2023-02-28T19:43:59.281Z,304.92
2023-02-28T19:46:29.882Z,279.17
2023-02-28T19:48:58.639Z,264.10
2023-02-28T19:51:28.879Z,271.70
2023-02-28T19:53:57.596Z,312.48
2023-02-28T19:56:26.159Z,287.00
2023-02-28T19:58:54.773Z,266.13
2023-02-28T20:01:23.389Z,275.00
2023-02-28T20:03:53.429Z,274.60
2023-02-28T20:06:21.966Z,305.73
2023-02-28T20:08:51.780Z,360.80
2023-02-28T20:11:20.314Z,274.63
2023-02-28T20:13:48.803Z,321.77
2023-02-28T20:16:17.609Z,285.55
2023-02-28T20:18:46.606Z,322.17
2023-02-28T20:21:16.716Z,275.67
2023-02-28T20:23:46.063Z,243.98
2023-02-28T20:26:15.594Z,257.77
2023-02-28T20:28:45.198Z,213.70
2023-02-28T20:31:14.948Z,383.60
2023-02-28T20:33:46.577Z,324.88
2023-02-28T20:36:19.768Z,327.70
2023-02-28T20:38:48.563Z,282.98
2023-02-28T20:41:17.202Z,290.92
2023-02-28T20:43:47.113Z,170.40
2023-02-28T20:46:15.796Z,330.85
2023-02-28T20:48:44.330Z,309.27
2023-02-28T20:51:13.002Z,318.67
2023-02-28T20:53:42.808Z,258.73
2023-02-28T20:56:14.119Z,319.42
2023-02-28T20:58:43.195Z,303.10
2023-02-28T21:01:16.125Z,282.70
2023-02-28T21:03:45.052Z,293.92
2023-02-28T21:06:14.104Z,325.75
2023-02-28T21:08:44.326Z,161.52
2023-02-28T21:11:15.400Z,284.67
2023-02-28T21:13:44.889Z,264.55
2023-02-28T21:16:15.476Z,267.52
2023-02-28T21:18:44.494Z,291.15
2023-02-28T21:21:14.359Z,292.67
2023-02-28T21:23:45.302Z,263.30
2023-02-28T21:26:15.179Z,264.20
2023-02-28T21:28:44.526Z,316.50
2023-02-28T21:31:14.798Z,285.23
2023-02-28T21:33:43.723Z,306.98
2023-02-28T21:36:14.497Z,341.88
2023-02-28T21:38:45.184Z,347.42
2023-02-28T21:41:15.049Z,302.50
2023-02-28T21:43:44.443Z,255.98
2023-02-28T21:46:14.966Z,269.23
2023-02-28T21:48:43.802Z,284.85
2023-02-28T21:51:14.587Z,254.55
2023-02-28T21:53:44.869Z,254.50
2023-02-28T21:56:14.897Z,289.15
2023-02-28T21:58:43.456Z,279.55
2023-02-28T22:01:14.824Z,300.65
2023-02-28T22:03:43.898Z,205.35
2023-02-28T22:06:13.924Z,325.13
2023-02-28T22:08:44.826Z,258.45
2023-02-28T22:11:13.730Z,270.08
2023-02-28T22:13:42.246Z,218.88
2023-02-28T22:16:12.162Z,261.25
2023-02-28T22:18:41.214Z,253.90
2023-02-28T22:21:10.540Z,286.02
2023-02-28T22:23:39.640Z,272.35
2023-02-28T22:26:10.988Z,256.42
2023-02-28T22:28:39.864Z,213.55
2023-02-28T22:31:15.423Z,242.98
2023-02-28T22:33:44.707Z,212.77
2023-02-28T22:36:14.732Z,244.38
2023-02-28T22:38:43.892Z,248.15
2023-02-28T22:41:14.551Z,282.65
2023-02-28T22:43:44.222Z,259.75
2023-02-28T22:46:14.318Z,216.13
2023-02-28T22:48:42.771Z,255.38
2023-02-28T22:51:14.708Z,248.82
2023-02-28T22:53:44.619Z,275.15
2023-02-28T22:56:15.333Z,277.73
2023-02-28T22:58:45.497Z,223.35
2023-02-28T23:01:16.664Z,278.98
2023-02-28T23:03:45.532Z,274.92
2023-02-28T23:06:15.434Z,261.40
2023-02-28T23:08:44.418Z,282.15
2023-02-28T23:11:19.128Z,137.00
2023-02-28T23:16:29.356Z,92.47
2023-02-28T23:18:59.197Z,202.95
2023-02-28T23:21:28.094Z,214.35
2023-02-28T23:23:56.713Z,219.15
2023-02-28T23:26:26.435Z,276.13
2023-02-28T23:28:54.831Z,286.08
2023-02-28T23:31:23.830Z,279.23
2023-02-28T23:33:52.635Z,244.75
2023-02-28T23:36:21.255Z,298.33
2023-02-28T23:38:51.713Z,224.48
2023-02-28T23:41:21.480Z,246.82
2023-02-28T23:43:52.231Z,214.40
2023-02-28T23:46:21.242Z,220.95
2023-02-28T23:48:49.953Z,246.55
2023-02-28T23:51:20.119Z,301.08
2023-02-28T23:53:49.906Z,207.13
2023-02-28T23:56:19.898Z,314.75
2023-02-28T23:58:50.204Z,270.95
